SHD weather

Shenandoah Valley Regional Airport
Staunton/Waynesboro/Harrisonburg, Virginia, United States

Public forecast

Using degrees Fahrenheit for public forecast. Weather courtesy of forecast.io.

Current aviation weather report (METAR) for Shenandoah Valley Regional Airport

Retrieved 2019/11/17 04:35 UTC (0 seconds ago):

KSHD 170435Z AUTO 01003KT 10SM OVC032 M01/M08 A3032 RMK AO2 T10151080

Closest aviation forecast (TAF) to Shenandoah Valley Regional Airport

Closest forecast is Charlottesville Albemarle Airport, 22.2 nm (41.2 km) ESE. Retrieved 2019-11-17 00:22 UTC (4 hours ago):

TAF KCHO 162320Z 1700/1724 03008KT P6SM FEW250 FM170600 01008KT P6SM BKN050 FM170900 01008KT P6SM BKN025 FM171500 01008G16KT P6SM BKN025 OVC050